CDT,Max TemperatureF,Mean TemperatureF,Min TemperatureF,Max Dew PointF,MeanDew PointF,Min DewpointF,Max Humidity, Mean Humidity, Min Humidity, Max Sea Level PressureIn, Mean Sea Level PressureIn, Min Sea Level PressureIn, Max VisibilityMiles, Mean VisibilityMiles, Min VisibilityMiles, Max Wind SpeedMPH, Mean Wind SpeedMPH, Max Gust SpeedMPH,PrecipitationIn, CloudCover, Events, WindDirDegrees
2013-10-1,77,60,44,54,45,30,93,60,18,30.00,29.88,29.66,10,10,6,16,9,25,0.00,0,,288
2013-10-2,80,60,41,66,49,32,100,63,28,30.01,29.91,29.79,10,10,3,21,8,31,0.05,3,Rain,136
2013-10-3,68,62,57,64,61,57,100,97,83,29.88,29.82,29.78,10,9,2,14,5,21,0.12,6,Rain,29
2013-10-4,68,62,53,68,62,54,100,99,88,29.88,29.77,29.67,10,8,1,16,12,24,0.02,7,,74
2013-10-5,51,44,37,52,38,34,100,76,50,29.82,29.77,29.72,10,10,10,20,10,29,0.00,5,,207
2013-10-6,50,44,39,50,45,39,100,100,93,29.96,29.82,29.74,10,8,1,21,7,28,0.29,5,Rain,316
2013-10-7,73,54,35,55,44,36,100,79,33,30.01,29.97,29.93,10,10,10,10,5,14,0.00,0,Rain,223
2013-10-8,75,62,48,46,44,43,87,55,31,29.94,29.87,29.80,10,10,10,24,11,36,0.00,0,,176
2013-10-9,78,66,53,50,48,46,88,60,34,29.99,29.96,29.91,10,10,10,18,11,28,0.00,0,,164
2013-10-10,80,68,55,52,50,48,77,57,32,29.99,29.89,29.78,10,10,10,23,12,32,0.00,0,,159
2013-10-11,75,62,50,61,52,43,100,71,31,29.81,29.68,29.55,10,10,9,28,15,40,0.00,2,Rain,176
2013-10-12,62,47,32,43,34,23,100,60,22,30.25,30.03,29.81,10,10,9,21,10,30,0.00,0,,267
2013-10-13,64,46,28,37,31,28,100,63,28,30.42,30.34,30.26,10,10,6,10,3,16,0.00,0,,122
2013-10-14,51,48,44,52,43,32,100,85,57,30.33,30.06,29.70,10,8,3,21,10,31,1.25,6,Rain,120
2013-10-15,55,48,42,55,47,43,100,100,100,29.96,29.78,29.63,10,6,2,21,15,28,0.03,8,Rain,270
2013-10-16,53,42,32,43,38,30,100,83,47,30.03,29.97,29.92,10,9,2,14,9,21,0.00,3,Rain,299
2013-10-17,57,44,30,45,38,30,100,87,47,29.99,29.89,29.83,10,9,3,18,6,30,0.00,4,Rain,285
2013-10-18,51,40,28,39,32,23,100,75,33,30.07,29.99,29.91,10,10,10,13,8,20,0.00,4,,282
2013-10-19,53,42,32,45,35,28,100,80,44,29.91,29.81,29.76,10,10,4,18,8,28,0.02,6,Rain,260
2013-10-20,57,48,39,43,36,30,87,71,54,29.97,29.76,29.65,10,10,10,23,11,34,0.00,7,,270
2013-10-21,48,38,28,37,30,25,100,73,40,30.02,29.98,29.92,10,10,10,15,7,23,0.00,6,,294
2013-10-22,39,36,32,36,31,27,100,84,61,30.08,30.00,29.90,10,9,2,12,7,18,0.04,8,Rain-Snow,17
2013-10-23,39,32,26,37,33,27,100,93,75,30.16,30.08,30.04,10,9,2,10,4,16,0.07,7,Rain-Snow,304
2013-10-24,48,37,24,34,30,25,100,81,43,30.34,30.28,30.16,10,10,10,17,8,24,0.00,4,,294
2013-10-25,60,42,24,37,33,25,100,72,42,30.35,30.14,29.93,10,10,9,22,8,38,0.00,1,,199
2013-10-26,48,36,24,41,30,25,100,76,40,30.20,30.10,29.94,10,10,10,17,9,25,0.00,0,,305
2013-10-27,60,42,24,36,32,25,100,70,39,30.08,29.92,29.79,10,10,10,13,7,21,0.00,0,,216
2013-10-28,44,38,32,34,31,28,100,77,61,30.31,30.23,30.05,10,10,10,21,15,30,0.00,2,,56
2013-10-29,46,40,35,46,42,30,100,99,75,30.26,30.09,29.99,10,6,1,16,11,23,0.42,8,Rain,85
2013-10-30,50,44,39,50,46,39,100,100,100,30.00,29.85,29.74,7,2,0,17,5,24,0.01,8,Fog-Rain,348
2013-10-31,42,37,32,43,39,32,100,100,93,29.73,29.56,29.47,10,8,0,13,7,17,0.00,8,Fog,282